sensor_id;sensor_type;location;lat;lon;timestamp;P1;durP1;ratioP1;P2;durP2;ratioP2
6280;SDS011;3173;48.204;11.612;2023-04-03T00:01:19;7.50;;;5.37;;
6280;SDS011;3173;48.204;11.612;2023-04-03T00:03:45;11.37;;;5.63;;
6280;SDS011;3173;48.204;11.612;2023-04-03T00:06:12;9.10;;;5.30;;
6280;SDS011;3173;48.204;11.612;2023-04-03T00:08:38;8.10;;;5.27;;
6280;SDS011;3173;48.204;11.612;2023-04-03T00:11:05;8.40;;;5.70;;
6280;SDS011;3173;48.204;11.612;2023-04-03T00:13:32;8.40;;;5.10;;
6280;SDS011;3173;48.204;11.612;2023-04-03T00:15:58;7.80;;;5.33;;
6280;SDS011;3173;48.204;11.612;2023-04-03T00:18:24;7.77;;;5.60;;
6280;SDS011;3173;48.204;11.612;2023-04-03T00:20:50;7.50;;;5.57;;
6280;SDS011;3173;48.204;11.612;2023-04-03T00:23:17;6.70;;;5.10;;
6280;SDS011;3173;48.204;11.612;2023-04-03T00:25:43;10.13;;;5.30;;
6280;SDS011;3173;48.204;11.612;2023-04-03T00:28:09;10.70;;;5.50;;
6280;SDS011;3173;48.204;11.612;2023-04-03T00:30:35;8.43;;;5.73;;
6280;SDS011;3173;48.204;11.612;2023-04-03T00:33:02;6.97;;;4.67;;
6280;SDS011;3173;48.204;11.612;2023-04-03T00:35:28;9.20;;;5.60;;
6280;SDS011;3173;48.204;11.612;2023-04-03T00:37:54;10.27;;;5.23;;
6280;SDS011;3173;48.204;11.612;2023-04-03T00:40:22;7.90;;;5.77;;
6280;SDS011;3173;48.204;11.612;2023-04-03T00:42:51;8.97;;;5.30;;
6280;SDS011;3173;48.204;11.612;2023-04-03T00:45:29;6.60;;;5.30;;
6280;SDS011;3173;48.204;11.612;2023-04-03T00:47:56;7.97;;;5.77;;
6280;SDS011;3173;48.204;11.612;2023-04-03T00:50:25;7.93;;;5.23;;
6280;SDS011;3173;48.204;11.612;2023-04-03T00:52:51;8.47;;;5.13;;
6280;SDS011;3173;48.204;11.612;2023-04-03T00:55:18;6.33;;;4.80;;
6280;SDS011;3173;48.204;11.612;2023-04-03T00:57:45;11.07;;;5.20;;
6280;SDS011;3173;48.204;11.612;2023-04-03T01:00:13;7.57;;;5.37;;
6280;SDS011;3173;48.204;11.612;2023-04-03T01:02:40;9.20;;;5.10;;
6280;SDS011;3173;48.204;11.612;2023-04-03T01:05:06;7.73;;;5.00;;
6280;SDS011;3173;48.204;11.612;2023-04-03T01:07:33;8.60;;;5.00;;
6280;SDS011;3173;48.204;11.612;2023-04-03T01:10:03;6.50;;;4.60;;
6280;SDS011;3173;48.204;11.612;2023-04-03T01:12:34;10.13;;;5.23;;
6280;SDS011;3173;48.204;11.612;2023-04-03T01:15:02;8.97;;;5.33;;
6280;SDS011;3173;48.204;11.612;2023-04-03T01:22:35;6.20;;;4.73;;
6280;SDS011;3173;48.204;11.612;2023-04-03T01:25:07;7.50;;;5.23;;
6280;SDS011;3173;48.204;11.612;2023-04-03T01:27:33;7.63;;;5.57;;
6280;SDS011;3173;48.204;11.612;2023-04-03T01:29:59;6.20;;;4.80;;
6280;SDS011;3173;48.204;11.612;2023-04-03T01:32:25;6.70;;;4.80;;
6280;SDS011;3173;48.204;11.612;2023-04-03T01:34:51;6.63;;;4.30;;
6280;SDS011;3173;48.204;11.612;2023-04-03T01:37:17;4.63;;;3.83;;
6280;SDS011;3173;48.204;11.612;2023-04-03T01:39:43;6.33;;;4.70;;
6280;SDS011;3173;48.204;11.612;2023-04-03T01:42:09;5.30;;;4.37;;
6280;SDS011;3173;48.204;11.612;2023-04-03T01:44:36;5.40;;;3.93;;
6280;SDS011;3173;48.204;11.612;2023-04-03T01:47:04;6.97;;;4.00;;
6280;SDS011;3173;48.204;11.612;2023-04-03T01:49:31;4.93;;;4.23;;
6280;SDS011;3173;48.204;11.612;2023-04-03T01:51:57;6.90;;;4.63;;
6280;SDS011;3173;48.204;11.612;2023-04-03T01:54:23;7.27;;;4.50;;
6280;SDS011;3173;48.204;11.612;2023-04-03T01:56:49;8.80;;;4.63;;
6280;SDS011;3173;48.204;11.612;2023-04-03T01:59:15;4.73;;;3.50;;
6280;SDS011;3173;48.204;11.612;2023-04-03T02:01:43;5.80;;;4.00;;
6280;SDS011;3173;48.204;11.612;2023-04-03T02:04:10;6.87;;;4.60;;
6280;SDS011;3173;48.204;11.612;2023-04-03T02:06:36;5.70;;;4.50;;
6280;SDS011;3173;48.204;11.612;2023-04-03T02:09:03;7.37;;;3.97;;
6280;SDS011;3173;48.204;11.612;2023-04-03T02:11:29;5.10;;;4.47;;
6280;SDS011;3173;48.204;11.612;2023-04-03T02:13:55;5.33;;;4.13;;
6280;SDS011;3173;48.204;11.612;2023-04-03T02:16:21;6.03;;;4.10;;
6280;SDS011;3173;48.204;11.612;2023-04-03T02:18:47;7.10;;;4.20;;
6280;SDS011;3173;48.204;11.612;2023-04-03T02:21:13;4.80;;;3.50;;
6280;SDS011;3173;48.204;11.612;2023-04-03T02:23:39;5.10;;;3.50;;
6280;SDS011;3173;48.204;11.612;2023-04-03T02:26:07;6.13;;;3.27;;
6280;SDS011;3173;48.204;11.612;2023-04-03T02:28:34;4.87;;;3.60;;
6280;SDS011;3173;48.204;11.612;2023-04-03T02:31:00;4.63;;;3.53;;
6280;SDS011;3173;48.204;11.612;2023-04-03T02:33:27;6.97;;;4.00;;
6280;SDS011;3173;48.204;11.612;2023-04-03T02:35:56;74.73;;;23.10;;
6280;SDS011;3173;48.204;11.612;2023-04-03T02:38:22;67.17;;;24.70;;
6280;SDS011;3173;48.204;11.612;2023-04-03T02:40:49;13.33;;;6.97;;
6280;SDS011;3173;48.204;11.612;2023-04-03T02:43:15;4.80;;;3.17;;
6280;SDS011;3173;48.204;11.612;2023-04-03T02:45:42;3.90;;;3.30;;
6280;SDS011;3173;48.204;11.612;2023-04-03T02:48:08;4.20;;;2.87;;
6280;SDS011;3173;48.204;11.612;2023-04-03T02:50:34;4.57;;;3.60;;
6280;SDS011;3173;48.204;11.612;2023-04-03T02:53:00;5.13;;;2.77;;
6280;SDS011;3173;48.204;11.612;2023-04-03T02:55:26;4.00;;;2.83;;
6280;SDS011;3173;48.204;11.612;2023-04-03T02:57:52;3.83;;;2.60;;
6280;SDS011;3173;48.204;11.612;2023-04-03T03:00:18;5.60;;;3.33;;
6280;SDS011;3173;48.204;11.612;2023-04-03T03:02:44;6.23;;;3.47;;
6280;SDS011;3173;48.204;11.612;2023-04-03T03:05:10;3.83;;;2.90;;
6280;SDS011;3173;48.204;11.612;2023-04-03T03:07:36;4.40;;;2.70;;
6280;SDS011;3173;48.204;11.612;2023-04-03T03:10:03;4.57;;;3.30;;
6280;SDS011;3173;48.204;11.612;2023-04-03T03:12:29;2.90;;;2.57;;
6280;SDS011;3173;48.204;11.612;2023-04-03T03:14:55;5.90;;;3.40;;
6280;SDS011;3173;48.204;11.612;2023-04-03T03:17:21;7.20;;;2.70;;
6280;SDS011;3173;48.204;11.612;2023-04-03T03:19:47;3.10;;;2.67;;
6280;SDS011;3173;48.204;11.612;2023-04-03T03:22:16;4.50;;;2.63;;
6280;SDS011;3173;48.204;11.612;2023-04-03T03:24:42;7.23;;;3.07;;
6280;SDS011;3173;48.204;11.612;2023-04-03T03:27:08;4.67;;;3.00;;
6280;SDS011;3173;48.204;11.612;2023-04-03T03:29:34;4.70;;;2.80;;
6280;SDS011;3173;48.204;11.612;2023-04-03T03:32:00;3.73;;;2.43;;
6280;SDS011;3173;48.204;11.612;2023-04-03T03:34:26;5.07;;;2.97;;
6280;SDS011;3173;48.204;11.612;2023-04-03T03:36:52;5.53;;;3.20;;
6280;SDS011;3173;48.204;11.612;2023-04-03T03:39:18;3.93;;;2.90;;
6280;SDS011;3173;48.204;11.612;2023-04-03T03:41:44;6.60;;;3.00;;
6280;SDS011;3173;48.204;11.612;2023-04-03T03:44:11;3.70;;;3.10;;
6280;SDS011;3173;48.204;11.612;2023-04-03T03:46:37;5.20;;;2.80;;
6280;SDS011;3173;48.204;11.612;2023-04-03T03:49:03;4.30;;;2.77;;
6280;SDS011;3173;48.204;11.612;2023-04-03T03:51:29;8.13;;;3.23;;
6280;SDS011;3173;48.204;11.612;2023-04-03T03:53:55;5.77;;;3.10;;
6280;SDS011;3173;48.204;11.612;2023-04-03T03:56:21;3.93;;;2.87;;
6280;SDS011;3173;48.204;11.612;2023-04-03T03:58:47;5.07;;;2.90;;
6280;SDS011;3173;48.204;11.612;2023-04-03T04:01:14;4.30;;;2.90;;
6280;SDS011;3173;48.204;11.612;2023-04-03T04:03:42;4.97;;;3.00;;
6280;SDS011;3173;48.204;11.612;2023-04-03T04:06:08;7.80;;;3.17;;
6280;SDS011;3173;48.204;11.612;2023-04-03T04:08:34;5.00;;;2.60;;
6280;SDS011;3173;48.204;11.612;2023-04-03T04:11:01;3.90;;;3.17;;
6280;SDS011;3173;48.204;11.612;2023-04-03T04:13:27;4.23;;;2.47;;
6280;SDS011;3173;48.204;11.612;2023-04-03T04:15:53;6.23;;;2.73;;
6280;SDS011;3173;48.204;11.612;2023-04-03T04:18:19;4.77;;;3.00;;
6280;SDS011;3173;48.204;11.612;2023-04-03T04:20:46;4.00;;;3.20;;
6280;SDS011;3173;48.204;11.612;2023-04-03T04:23:12;3.73;;;2.70;;
6280;SDS011;3173;48.204;11.612;2023-04-03T04:25:38;3.87;;;2.97;;
6280;SDS011;3173;48.204;11.612;2023-04-03T04:28:04;3.93;;;2.97;;
6280;SDS011;3173;48.204;11.612;2023-04-03T04:30:31;5.20;;;3.27;;
6280;SDS011;3173;48.204;11.612;2023-04-03T04:32:57;6.47;;;3.10;;
6280;SDS011;3173;48.204;11.612;2023-04-03T04:35:23;2.90;;;2.43;;
6280;SDS011;3173;48.204;11.612;2023-04-03T04:37:49;4.90;;;3.50;;
6280;SDS011;3173;48.204;11.612;2023-04-03T04:40:15;4.87;;;2.90;;
6280;SDS011;3173;48.204;11.612;2023-04-03T04:42:41;4.10;;;3.20;;
6280;SDS011;3173;48.204;11.612;2023-04-03T04:45:08;4.47;;;2.80;;
6280;SDS011;3173;48.204;11.612;2023-04-03T04:47:34;4.17;;;2.97;;
6280;SDS011;3173;48.204;11.612;2023-04-03T04:50:00;7.00;;;2.90;;
6280;SDS011;3173;48.204;11.612;2023-04-03T04:52:26;3.13;;;2.50;;
6280;SDS011;3173;48.204;11.612;2023-04-03T04:54:52;6.53;;;3.23;;
6280;SDS011;3173;48.204;11.612;2023-04-03T04:57:18;4.97;;;3.30;;
6280;SDS011;3173;48.204;11.612;2023-04-03T04:59:44;5.10;;;2.87;;
6280;SDS011;3173;48.204;11.612;2023-04-03T05:02:11;3.27;;;2.70;;
6280;SDS011;3173;48.204;11.612;2023-04-03T05:04:37;3.20;;;2.43;;
6280;SDS011;3173;48.204;11.612;2023-04-03T05:07:03;5.30;;;3.27;;
6280;SDS011;3173;48.204;11.612;2023-04-03T05:09:29;9.07;;;2.80;;
6280;SDS011;3173;48.204;11.612;2023-04-03T05:11:55;3.77;;;2.87;;
6280;SDS011;3173;48.204;11.612;2023-04-03T05:14:22;3.10;;;2.80;;
6280;SDS011;3173;48.204;11.612;2023-04-03T05:16:48;3.93;;;3.20;;
6280;SDS011;3173;48.204;11.612;2023-04-03T05:19:19;5.33;;;2.93;;
6280;SDS011;3173;48.204;11.612;2023-04-03T05:21:45;4.40;;;3.27;;
6280;SDS011;3173;48.204;11.612;2023-04-03T05:24:11;3.90;;;3.20;;
6280;SDS011;3173;48.204;11.612;2023-04-03T05:26:38;4.30;;;3.10;;
6280;SDS011;3173;48.204;11.612;2023-04-03T05:29:04;15.30;;;8.80;;
6280;SDS011;3173;48.204;11.612;2023-04-03T05:31:30;9.40;;;5.00;;
6280;SDS011;3173;48.204;11.612;2023-04-03T05:33:56;5.00;;;3.77;;
6280;SDS011;3173;48.204;11.612;2023-04-03T05:36:23;5.20;;;3.27;;
6280;SDS011;3173;48.204;11.612;2023-04-03T05:38:49;5.40;;;3.20;;
6280;SDS011;3173;48.204;11.612;2023-04-03T05:41:15;4.63;;;3.10;;
6280;SDS011;3173;48.204;11.612;2023-04-03T05:43:41;4.10;;;3.17;;
6280;SDS011;3173;48.204;11.612;2023-04-03T05:46:18;6.20;;;3.60;;
6280;SDS011;3173;48.204;11.612;2023-04-03T05:48:45;3.90;;;3.17;;
6280;SDS011;3173;48.204;11.612;2023-04-03T05:51:18;5.30;;;3.27;;
6280;SDS011;3173;48.204;11.612;2023-04-03T05:53:45;4.23;;;2.90;;
6280;SDS011;3173;48.204;11.612;2023-04-03T05:56:12;8.20;;;3.10;;
6280;SDS011;3173;48.204;11.612;2023-04-03T05:58:38;4.40;;;3.00;;
6280;SDS011;3173;48.204;11.612;2023-04-03T06:01:04;6.70;;;3.47;;
6280;SDS011;3173;48.204;11.612;2023-04-03T06:03:31;4.50;;;3.57;;
6280;SDS011;3173;48.204;11.612;2023-04-03T06:05:57;5.90;;;3.47;;
6280;SDS011;3173;48.204;11.612;2023-04-03T06:08:23;5.83;;;3.37;;
6280;SDS011;3173;48.204;11.612;2023-04-03T06:10:49;10.80;;;3.40;;
6280;SDS011;3173;48.204;11.612;2023-04-03T06:13:16;8.90;;;3.40;;
6280;SDS011;3173;48.204;11.612;2023-04-03T06:15:42;3.97;;;3.17;;
6280;SDS011;3173;48.204;11.612;2023-04-03T06:18:09;4.93;;;3.60;;
6280;SDS011;3173;48.204;11.612;2023-04-03T06:20:35;5.67;;;3.73;;
6280;SDS011;3173;48.204;11.612;2023-04-03T06:23:01;4.70;;;3.33;;
6280;SDS011;3173;48.204;11.612;2023-04-03T06:25:28;6.70;;;3.00;;
6280;SDS011;3173;48.204;11.612;2023-04-03T06:27:54;6.27;;;3.20;;
6280;SDS011;3173;48.204;11.612;2023-04-03T06:30:23;5.97;;;3.30;;
6280;SDS011;3173;48.204;11.612;2023-04-03T06:32:49;6.33;;;3.43;;
6280;SDS011;3173;48.204;11.612;2023-04-03T06:35:15;4.77;;;3.37;;
6280;SDS011;3173;48.204;11.612;2023-04-03T06:37:41;5.80;;;3.10;;
6280;SDS011;3173;48.204;11.612;2023-04-03T06:40:09;4.73;;;3.43;;
6280;SDS011;3173;48.204;11.612;2023-04-03T06:42:40;6.23;;;3.97;;
6280;SDS011;3173;48.204;11.612;2023-04-03T06:45:06;4.83;;;3.00;;
6280;SDS011;3173;48.204;11.612;2023-04-03T06:47:33;6.40;;;3.50;;
6280;SDS011;3173;48.204;11.612;2023-04-03T06:49:59;4.03;;;3.30;;
6280;SDS011;3173;48.204;11.612;2023-04-03T06:52:26;3.90;;;3.37;;
6280;SDS011;3173;48.204;11.612;2023-04-03T06:54:52;3.07;;;2.77;;
6280;SDS011;3173;48.204;11.612;2023-04-03T06:57:22;6.13;;;3.40;;
6280;SDS011;3173;48.204;11.612;2023-04-03T06:59:48;8.33;;;3.07;;
6280;SDS011;3173;48.204;11.612;2023-04-03T07:02:14;6.43;;;3.17;;
6280;SDS011;3173;48.204;11.612;2023-04-03T07:04:40;6.17;;;3.63;;
6280;SDS011;3173;48.204;11.612;2023-04-03T07:07:06;7.20;;;3.77;;
6280;SDS011;3173;48.204;11.612;2023-04-03T07:09:32;5.00;;;3.77;;
6280;SDS011;3173;48.204;11.612;2023-04-03T07:11:58;4.00;;;3.40;;
6280;SDS011;3173;48.204;11.612;2023-04-03T07:14:25;6.23;;;4.17;;
6280;SDS011;3173;48.204;11.612;2023-04-03T07:16:51;9.37;;;3.60;;
6280;SDS011;3173;48.204;11.612;2023-04-03T07:19:17;4.80;;;3.60;;
6280;SDS011;3173;48.204;11.612;2023-04-03T07:21:43;5.97;;;3.80;;
6280;SDS011;3173;48.204;11.612;2023-04-03T07:24:10;6.37;;;3.17;;
6280;SDS011;3173;48.204;11.612;2023-04-03T07:26:36;4.53;;;3.60;;
6280;SDS011;3173;48.204;11.612;2023-04-03T07:29:02;4.10;;;3.00;;
6280;SDS011;3173;48.204;11.612;2023-04-03T07:31:28;5.07;;;3.90;;
6280;SDS011;3173;48.204;11.612;2023-04-03T07:33:54;6.07;;;3.80;;
6280;SDS011;3173;48.204;11.612;2023-04-03T07:36:21;7.80;;;3.60;;
6280;SDS011;3173;48.204;11.612;2023-04-03T07:38:47;5.73;;;4.30;;
6280;SDS011;3173;48.204;11.612;2023-04-03T07:41:14;5.57;;;4.23;;
6280;SDS011;3173;48.204;11.612;2023-04-03T07:43:42;8.00;;;5.40;;
6280;SDS011;3173;48.204;11.612;2023-04-03T07:46:08;7.30;;;4.97;;
6280;SDS011;3173;48.204;11.612;2023-04-03T07:48:35;8.67;;;4.70;;
6280;SDS011;3173;48.204;11.612;2023-04-03T07:51:02;7.80;;;5.07;;
6280;SDS011;3173;48.204;11.612;2023-04-03T07:53:29;7.83;;;4.37;;
6280;SDS011;3173;48.204;11.612;2023-04-03T07:55:56;7.23;;;4.60;;
6280;SDS011;3173;48.204;11.612;2023-04-03T07:58:22;9.13;;;4.30;;
6280;SDS011;3173;48.204;11.612;2023-04-03T08:00:48;6.27;;;4.60;;
6280;SDS011;3173;48.204;11.612;2023-04-03T08:03:14;9.10;;;5.37;;
6280;SDS011;3173;48.204;11.612;2023-04-03T08:05:45;11.17;;;5.60;;
6280;SDS011;3173;48.204;11.612;2023-04-03T08:08:12;9.30;;;5.80;;
6280;SDS011;3173;48.204;11.612;2023-04-03T08:10:39;10.43;;;5.27;;
6280;SDS011;3173;48.204;11.612;2023-04-03T08:13:06;7.60;;;4.30;;
6280;SDS011;3173;48.204;11.612;2023-04-03T08:15:32;8.03;;;4.50;;
6280;SDS011;3173;48.204;11.612;2023-04-03T08:17:59;8.77;;;4.87;;
6280;SDS011;3173;48.204;11.612;2023-04-03T08:20:26;7.30;;;5.00;;
6280;SDS011;3173;48.204;11.612;2023-04-03T08:22:52;6.13;;;4.40;;
6280;SDS011;3173;48.204;11.612;2023-04-03T08:25:18;7.57;;;4.37;;
6280;SDS011;3173;48.204;11.612;2023-04-03T08:27:44;8.43;;;5.90;;
6280;SDS011;3173;48.204;11.612;2023-04-03T08:30:11;10.57;;;5.07;;
6280;SDS011;3173;48.204;11.612;2023-04-03T08:32:37;8.37;;;4.50;;
6280;SDS011;3173;48.204;11.612;2023-04-03T08:35:04;5.47;;;4.30;;
6280;SDS011;3173;48.204;11.612;2023-04-03T08:37:30;8.03;;;4.80;;
6280;SDS011;3173;48.204;11.612;2023-04-03T08:39:56;12.13;;;4.70;;
6280;SDS011;3173;48.204;11.612;2023-04-03T08:42:34;7.17;;;4.20;;
6280;SDS011;3173;48.204;11.612;2023-04-03T08:47:38;7.30;;;4.83;;
6280;SDS011;3173;48.204;11.612;2023-04-03T08:50:11;13.27;;;8.23;;
6280;SDS011;3173;48.204;11.612;2023-04-03T08:52:41;6.60;;;4.10;;
6280;SDS011;3173;48.204;11.612;2023-04-03T08:55:18;5.70;;;4.57;;
6280;SDS011;3173;48.204;11.612;2023-04-03T08:57:47;7.33;;;4.50;;
6280;SDS011;3173;48.204;11.612;2023-04-03T09:05:17;5.53;;;4.03;;
6280;SDS011;3173;48.204;11.612;2023-04-03T09:07:45;6.50;;;4.53;;
6280;SDS011;3173;48.204;11.612;2023-04-03T09:10:13;5.40;;;4.17;;
6280;SDS011;3173;48.204;11.612;2023-04-03T09:12:41;8.00;;;4.40;;
6280;SDS011;3173;48.204;11.612;2023-04-03T09:15:21;6.00;;;3.87;;
6280;SDS011;3173;48.204;11.612;2023-04-03T09:23:15;6.60;;;3.80;;
6280;SDS011;3173;48.204;11.612;2023-04-03T09:25:43;4.80;;;3.37;;
6280;SDS011;3173;48.204;11.612;2023-04-03T09:28:10;7.23;;;4.57;;
6280;SDS011;3173;48.204;11.612;2023-04-03T09:30:37;7.00;;;4.20;;
6280;SDS011;3173;48.204;11.612;2023-04-03T09:33:04;7.17;;;3.93;;
6280;SDS011;3173;48.204;11.612;2023-04-03T09:35:35;6.33;;;3.57;;
6280;SDS011;3173;48.204;11.612;2023-04-03T09:40:38;8.20;;;4.30;;
6280;SDS011;3173;48.204;11.612;2023-04-03T09:45:43;3.93;;;3.40;;
6280;SDS011;3173;48.204;11.612;2023-04-03T09:50:35;5.40;;;3.20;;
6280;SDS011;3173;48.204;11.612;2023-04-03T09:53:06;5.30;;;4.10;;
6280;SDS011;3173;48.204;11.612;2023-04-03T09:55:32;6.23;;;3.60;;
6280;SDS011;3173;48.204;11.612;2023-04-03T09:58:11;6.20;;;3.97;;
6280;SDS011;3173;48.204;11.612;2023-04-03T10:00:53;7.00;;;3.90;;
6280;SDS011;3173;48.204;11.612;2023-04-03T10:03:24;8.83;;;4.00;;
6280;SDS011;3173;48.204;11.612;2023-04-03T10:05:51;5.67;;;3.63;;
6280;SDS011;3173;48.204;11.612;2023-04-03T10:08:21;7.37;;;4.60;;
6280;SDS011;3173;48.204;11.612;2023-04-03T10:10:49;4.20;;;3.50;;
6280;SDS011;3173;48.204;11.612;2023-04-03T10:13:30;8.13;;;3.50;;
6280;SDS011;3173;48.204;11.612;2023-04-03T10:16:00;5.73;;;3.70;;
6280;SDS011;3173;48.204;11.612;2023-04-03T10:18:32;4.67;;;3.70;;
6280;SDS011;3173;48.204;11.612;2023-04-03T10:21:09;10.40;;;3.20;;
6280;SDS011;3173;48.204;11.612;2023-04-03T10:23:42;12.03;;;3.50;;
6280;SDS011;3173;48.204;11.612;2023-04-03T10:38:46;5.40;;;3.00;;
6280;SDS011;3173;48.204;11.612;2023-04-03T10:41:21;6.67;;;3.20;;
6280;SDS011;3173;48.204;11.612;2023-04-03T10:43:50;6.73;;;2.73;;
6280;SDS011;3173;48.204;11.612;2023-04-03T10:59:43;5.20;;;3.17;;
6280;SDS011;3173;48.204;11.612;2023-04-03T11:04:40;5.37;;;3.03;;
6280;SDS011;3173;48.204;11.612;2023-04-03T11:07:42;7.27;;;2.60;;
6280;SDS011;3173;48.204;11.612;2023-04-03T11:10:13;4.97;;;2.93;;
6280;SDS011;3173;48.204;11.612;2023-04-03T11:15:11;5.53;;;3.13;;
6280;SDS011;3173;48.204;11.612;2023-04-03T11:17:43;6.50;;;3.37;;
6280;SDS011;3173;48.204;11.612;2023-04-03T11:22:41;5.20;;;2.97;;
6280;SDS011;3173;48.204;11.612;2023-04-03T11:28:22;4.67;;;1.73;;
6280;SDS011;3173;48.204;11.612;2023-04-03T11:35:45;4.60;;;3.27;;
6280;SDS011;3173;48.204;11.612;2023-04-03T11:38:26;3.80;;;3.10;;
6280;SDS011;3173;48.204;11.612;2023-04-03T11:40:54;5.73;;;2.50;;
6280;SDS011;3173;48.204;11.612;2023-04-03T11:43:28;3.30;;;1.90;;
6280;SDS011;3173;48.204;11.612;2023-04-03T11:45:56;3.90;;;2.50;;
6280;SDS011;3173;48.204;11.612;2023-04-03T11:50:54;2.87;;;1.97;;
6280;SDS011;3173;48.204;11.612;2023-04-03T11:53:39;4.93;;;2.30;;
6280;SDS011;3173;48.204;11.612;2023-04-03T12:02:17;3.83;;;1.97;;
6280;SDS011;3173;48.204;11.612;2023-04-03T12:04:25;2.83;;;1.60;;
6280;SDS011;3173;48.204;11.612;2023-04-03T12:07:00;4.20;;;1.77;;
6280;SDS011;3173;48.204;11.612;2023-04-03T12:09:29;3.97;;;1.90;;
6280;SDS011;3173;48.204;11.612;2023-04-03T12:11:56;4.70;;;1.90;;
6280;SDS011;3173;48.204;11.612;2023-04-03T12:14:24;3.43;;;1.90;;
6280;SDS011;3173;48.204;11.612;2023-04-03T12:16:52;2.70;;;1.77;;
6280;SDS011;3173;48.204;11.612;2023-04-03T12:19:37;3.00;;;1.40;;
6280;SDS011;3173;48.204;11.612;2023-04-03T12:22:12;2.93;;;1.70;;
6280;SDS011;3173;48.204;11.612;2023-04-03T12:24:40;3.00;;;1.60;;
6280;SDS011;3173;48.204;11.612;2023-04-03T12:27:21;1.83;;;1.17;;
6280;SDS011;3173;48.204;11.612;2023-04-03T12:40:39;4.93;;;2.90;;
6280;SDS011;3173;48.204;11.612;2023-04-03T12:43:27;4.67;;;2.03;;
6280;SDS011;3173;48.204;11.612;2023-04-03T12:48:47;3.53;;;1.50;;
6280;SDS011;3173;48.204;11.612;2023-04-03T12:54:00;5.60;;;1.70;;
6280;SDS011;3173;48.204;11.612;2023-04-03T12:56:30;4.57;;;2.40;;
6280;SDS011;3173;48.204;11.612;2023-04-03T13:01:59;3.80;;;1.67;;
6280;SDS011;3173;48.204;11.612;2023-04-03T13:04:26;4.50;;;1.60;;
6280;SDS011;3173;48.204;11.612;2023-04-03T13:06:53;8.37;;;4.30;;
6280;SDS011;3173;48.204;11.612;2023-04-03T13:09:24;6.63;;;2.40;;
6280;SDS011;3173;48.204;11.612;2023-04-03T13:11:56;2.97;;;1.20;;
6280;SDS011;3173;48.204;11.612;2023-04-03T13:14:24;3.10;;;1.40;;
6280;SDS011;3173;48.204;11.612;2023-04-03T13:16:54;3.70;;;1.50;;
6280;SDS011;3173;48.204;11.612;2023-04-03T13:19:22;2.40;;;1.47;;
6280;SDS011;3173;48.204;11.612;2023-04-03T13:21:48;3.60;;;1.63;;
6280;SDS011;3173;48.204;11.612;2023-04-03T13:24:16;2.40;;;1.40;;
6280;SDS011;3173;48.204;11.612;2023-04-03T13:26:42;3.70;;;1.70;;
6280;SDS011;3173;48.204;11.612;2023-04-03T13:29:18;4.60;;;1.53;;
6280;SDS011;3173;48.204;11.612;2023-04-03T13:31:45;2.80;;;1.87;;
6280;SDS011;3173;48.204;11.612;2023-04-03T13:34:12;2.13;;;1.40;;
6280;SDS011;3173;48.204;11.612;2023-04-03T13:36:43;3.37;;;1.43;;
6280;SDS011;3173;48.204;11.612;2023-04-03T13:41:38;9.17;;;1.60;;
6280;SDS011;3173;48.204;11.612;2023-04-03T13:44:15;2.17;;;1.30;;
6280;SDS011;3173;48.204;11.612;2023-04-03T13:46:41;6.13;;;1.50;;
6280;SDS011;3173;48.204;11.612;2023-04-03T13:51:52;4.60;;;1.60;;
6280;SDS011;3173;48.204;11.612;2023-04-03T13:54:34;2.37;;;1.43;;
6280;SDS011;3173;48.204;11.612;2023-04-03T13:57:01;3.17;;;1.57;;
6280;SDS011;3173;48.204;11.612;2023-04-03T13:59:32;5.50;;;1.60;;
6280;SDS011;3173;48.204;11.612;2023-04-03T14:04:30;4.70;;;1.37;;
6280;SDS011;3173;48.204;11.612;2023-04-03T14:06:56;5.47;;;1.70;;
6280;SDS011;3173;48.204;11.612;2023-04-03T14:09:23;4.80;;;2.03;;
6280;SDS011;3173;48.204;11.612;2023-04-03T14:11:50;2.20;;;1.23;;
6280;SDS011;3173;48.204;11.612;2023-04-03T14:14:19;3.47;;;1.63;;
6280;SDS011;3173;48.204;11.612;2023-04-03T14:16:48;5.03;;;1.63;;
6280;SDS011;3173;48.204;11.612;2023-04-03T14:19:34;2.90;;;1.50;;
6280;SDS011;3173;48.204;11.612;2023-04-03T14:22:06;7.20;;;1.70;;
6280;SDS011;3173;48.204;11.612;2023-04-03T14:24:33;2.23;;;1.37;;
6280;SDS011;3173;48.204;11.612;2023-04-03T14:27:16;2.27;;;1.10;;
6280;SDS011;3173;48.204;11.612;2023-04-03T14:29:42;2.40;;;1.47;;
6280;SDS011;3173;48.204;11.612;2023-04-03T14:32:10;4.20;;;1.53;;
6280;SDS011;3173;48.204;11.612;2023-04-03T14:34:37;3.10;;;1.40;;
6280;SDS011;3173;48.204;11.612;2023-04-03T14:37:04;16.23;;;5.87;;
6280;SDS011;3173;48.204;11.612;2023-04-03T14:39:30;3.50;;;1.60;;
6280;SDS011;3173;48.204;11.612;2023-04-03T14:41:57;6.40;;;1.37;;
6280;SDS011;3173;48.204;11.612;2023-04-03T14:44:23;2.50;;;1.20;;
6280;SDS011;3173;48.204;11.612;2023-04-03T14:46:49;3.60;;;1.20;;
6280;SDS011;3173;48.204;11.612;2023-04-03T14:49:17;1.90;;;1.10;;
6280;SDS011;3173;48.204;11.612;2023-04-03T14:51:44;3.70;;;1.23;;
6280;SDS011;3173;48.204;11.612;2023-04-03T14:54:14;1.80;;;1.07;;
6280;SDS011;3173;48.204;11.612;2023-04-03T14:56:41;3.20;;;1.23;;
6280;SDS011;3173;48.204;11.612;2023-04-03T14:59:13;1.70;;;1.10;;
6280;SDS011;3173;48.204;11.612;2023-04-03T15:01:40;2.50;;;1.33;;
6280;SDS011;3173;48.204;11.612;2023-04-03T15:04:24;2.03;;;1.10;;
6280;SDS011;3173;48.204;11.612;2023-04-03T15:06:50;2.10;;;1.10;;
6280;SDS011;3173;48.204;11.612;2023-04-03T15:09:21;4.07;;;1.10;;
6280;SDS011;3173;48.204;11.612;2023-04-03T15:11:48;1.53;;;1.17;;
6280;SDS011;3173;48.204;11.612;2023-04-03T15:14:14;2.30;;;1.30;;
6280;SDS011;3173;48.204;11.612;2023-04-03T15:16:40;1.93;;;1.23;;
6280;SDS011;3173;48.204;11.612;2023-04-03T15:19:06;3.43;;;1.20;;
6280;SDS011;3173;48.204;11.612;2023-04-03T15:21:33;1.97;;;1.23;;
6280;SDS011;3173;48.204;11.612;2023-04-03T15:23:59;2.00;;;1.27;;
6280;SDS011;3173;48.204;11.612;2023-04-03T15:26:25;4.30;;;1.10;;
6280;SDS011;3173;48.204;11.612;2023-04-03T15:28:51;16.57;;;7.93;;
6280;SDS011;3173;48.204;11.612;2023-04-03T15:31:17;5.73;;;1.73;;
6280;SDS011;3173;48.204;11.612;2023-04-03T15:33:43;2.07;;;1.67;;
6280;SDS011;3173;48.204;11.612;2023-04-03T15:36:10;1.77;;;1.23;;
6280;SDS011;3173;48.204;11.612;2023-04-03T15:38:37;2.77;;;1.20;;
6280;SDS011;3173;48.204;11.612;2023-04-03T15:41:03;4.87;;;1.10;;
6280;SDS011;3173;48.204;11.612;2023-04-03T15:43:30;3.70;;;1.20;;
6280;SDS011;3173;48.204;11.612;2023-04-03T15:45:58;3.80;;;1.17;;
6280;SDS011;3173;48.204;11.612;2023-04-03T15:48:26;1.87;;;1.20;;
6280;SDS011;3173;48.204;11.612;2023-04-03T15:50:52;1.87;;;1.00;;
6280;SDS011;3173;48.204;11.612;2023-04-03T15:53:18;1.87;;;1.13;;
6280;SDS011;3173;48.204;11.612;2023-04-03T15:55:45;1.80;;;1.27;;
6280;SDS011;3173;48.204;11.612;2023-04-03T15:58:11;4.13;;;1.50;;
6280;SDS011;3173;48.204;11.612;2023-04-03T16:00:37;3.03;;;1.30;;
6280;SDS011;3173;48.204;11.612;2023-04-03T16:03:05;7.43;;;1.20;;
6280;SDS011;3173;48.204;11.612;2023-04-03T16:05:31;5.17;;;1.70;;
6280;SDS011;3173;48.204;11.612;2023-04-03T16:07:58;3.63;;;1.53;;
6280;SDS011;3173;48.204;11.612;2023-04-03T16:10:25;7.63;;;1.30;;
6280;SDS011;3173;48.204;11.612;2023-04-03T16:12:51;2.70;;;1.40;;
6280;SDS011;3173;48.204;11.612;2023-04-03T16:15:18;1.53;;;1.10;;
6280;SDS011;3173;48.204;11.612;2023-04-03T16:17:44;4.67;;;1.40;;
6280;SDS011;3173;48.204;11.612;2023-04-03T16:20:10;2.50;;;1.30;;
6280;SDS011;3173;48.204;11.612;2023-04-03T16:22:37;3.60;;;2.20;;
6280;SDS011;3173;48.204;11.612;2023-04-03T16:25:04;3.30;;;1.37;;
6280;SDS011;3173;48.204;11.612;2023-04-03T16:27:31;1.73;;;1.30;;
6280;SDS011;3173;48.204;11.612;2023-04-03T16:29:57;2.50;;;1.23;;
6280;SDS011;3173;48.204;11.612;2023-04-03T16:32:24;5.57;;;1.60;;
6280;SDS011;3173;48.204;11.612;2023-04-03T16:34:52;4.43;;;1.47;;
6280;SDS011;3173;48.204;11.612;2023-04-03T16:37:18;2.20;;;1.70;;
6280;SDS011;3173;48.204;11.612;2023-04-03T16:39:44;3.10;;;1.50;;
6280;SDS011;3173;48.204;11.612;2023-04-03T16:42:10;3.90;;;1.60;;
6280;SDS011;3173;48.204;11.612;2023-04-03T16:44:36;4.00;;;1.60;;
6280;SDS011;3173;48.204;11.612;2023-04-03T16:47:04;2.93;;;1.60;;